createdAt,value
2018-04-06T00:01:40.980Z,97110.34
2018-04-06T00:04:06.891Z,97110.84
2018-04-06T00:06:35.987Z,97104.55
2018-04-06T00:09:01.939Z,97103.30
2018-04-06T00:11:29.005Z,97109.92
2018-04-06T00:13:54.932Z,97116.97
2018-04-06T00:16:24.756Z,97109.52
2018-04-06T00:18:50.681Z,97103.63
2018-04-06T00:21:19.886Z,97108.09
2018-04-06T00:23:45.786Z,97112.00
2018-04-06T00:26:11.721Z,97111.74
2018-04-06T00:28:37.697Z,97104.75
2018-04-06T00:31:03.635Z,97106.90
2018-04-06T00:33:30.382Z,97112.02
2018-04-06T00:35:56.311Z,97110.06
2018-04-06T00:38:24.893Z,97110.78
2018-04-06T00:40:50.826Z,97104.30
2018-04-06T00:43:20.480Z,97104.34
2018-04-06T00:45:46.393Z,97100.83
2018-04-06T00:48:15.696Z,97110.28
2018-04-06T00:53:30.130Z,97101.19
2018-04-06T00:55:56.051Z,97106.37
2018-04-06T00:58:21.989Z,97106.91
2018-04-06T01:00:47.901Z,97099.74
2018-04-06T01:03:13.808Z,97105.63
2018-04-06T01:05:39.708Z,97110.39
2018-04-06T01:08:05.602Z,97107.02
2018-04-06T01:10:31.509Z,97104.75
2018-04-06T01:12:57.511Z,97104.41
2018-04-06T01:15:23.426Z,97095.80
2018-04-06T01:17:49.351Z,97097.95
2018-04-06T01:20:15.267Z,97094.52
2018-04-06T01:22:41.159Z,97101.41
2018-04-06T01:25:07.060Z,97096.92
2018-04-06T01:27:32.971Z,97099.10
2018-04-06T01:29:58.889Z,97090.63
2018-04-06T01:32:24.796Z,97088.44
2018-04-06T01:34:50.734Z,97086.91
2018-04-06T01:37:16.618Z,97088.91
2018-04-06T01:39:42.615Z,97093.34
2018-04-06T01:42:08.498Z,97093.51
2018-04-06T01:44:34.418Z,97086.52
2018-04-06T01:47:00.652Z,97089.16
2018-04-06T01:49:26.602Z,97092.46
2018-04-06T01:51:55.855Z,97095.73
2018-04-06T01:54:21.786Z,97092.66
2018-04-06T01:56:50.930Z,97086.30
2018-04-06T01:59:16.919Z,97077.75
2018-04-06T02:01:44.762Z,97080.09
2018-04-06T02:04:10.690Z,97085.69
2018-04-06T02:06:39.782Z,97080.48
2018-04-06T02:09:05.722Z,97079.50
2018-04-06T02:11:34.413Z,97077.02
2018-04-06T02:14:00.345Z,97075.37
2018-04-06T02:16:26.282Z,97083.77
2018-04-06T02:18:52.371Z,97090.20
2018-04-06T02:21:18.233Z,97085.45
2018-04-06T02:23:46.347Z,97085.61
2018-04-06T02:26:12.276Z,97075.84
2018-04-06T02:28:42.217Z,97078.36
2018-04-06T02:31:08.303Z,97080.23
2018-04-06T02:33:35.359Z,97076.98
2018-04-06T02:36:01.315Z,97076.03
2018-04-06T02:38:31.202Z,97072.33
2018-04-06T02:40:57.115Z,97074.02
2018-04-06T02:43:24.650Z,97078.36
2018-04-06T02:45:50.609Z,97079.71
2018-04-06T02:48:19.347Z,97079.34
2018-04-06T02:50:45.275Z,97070.28
2018-04-06T02:53:11.194Z,97073.73
2018-04-06T02:55:37.137Z,97068.53
2018-04-06T02:58:03.075Z,97072.84
2018-04-06T03:00:32.320Z,97068.14
2018-04-06T03:02:58.205Z,97065.84
2018-04-06T03:05:27.402Z,97062.93
2018-04-06T03:07:53.322Z,97062.99
2018-04-06T03:10:20.886Z,97068.50
2018-04-06T03:12:46.881Z,97065.13
2018-04-06T03:15:16.130Z,97065.28
2018-04-06T03:17:42.058Z,97070.20
2018-04-06T03:20:11.572Z,97067.09
2018-04-06T03:22:37.445Z,97068.86
2018-04-06T03:25:04.991Z,97066.66
2018-04-06T03:27:30.912Z,97069.09
2018-04-06T03:29:56.779Z,97061.23
2018-04-06T03:32:22.698Z,97067.13
2018-04-06T03:34:48.608Z,97066.81
2018-04-06T03:37:18.138Z,97064.30
2018-04-06T03:39:44.073Z,97062.91
2018-04-06T03:42:11.889Z,97064.90
2018-04-06T03:44:37.766Z,97063.07
2018-04-06T03:47:07.688Z,97056.42
2018-04-06T03:49:33.590Z,97060.50
2018-04-06T03:52:00.705Z,97052.65
2018-04-06T03:54:26.642Z,97049.28
2018-04-06T03:56:56.171Z,97047.48
2018-04-06T03:59:22.087Z,97063.39
2018-04-06T04:01:50.434Z,97054.73
2018-04-06T04:04:16.339Z,97053.05
2018-04-06T04:06:42.264Z,97045.52
2018-04-06T04:09:08.241Z,97049.31
2018-04-06T04:11:34.211Z,97050.28
2018-04-06T04:14:01.822Z,97055.45
2018-04-06T04:16:27.779Z,97043.29
2018-04-06T04:18:56.795Z,97050.80
2018-04-06T04:21:22.701Z,97041.95
2018-04-06T04:23:51.834Z,97036.66
2018-04-06T04:26:17.728Z,97036.52
2018-04-06T04:28:46.800Z,97032.84
2018-04-06T04:31:12.702Z,97038.27
2018-04-06T04:33:40.788Z,97044.00
2018-04-06T04:36:06.713Z,97037.75
2018-04-06T04:38:36.063Z,97042.48
2018-04-06T04:41:02.046Z,97037.66
2018-04-06T04:43:27.938Z,97038.72
2018-04-06T04:45:53.777Z,97029.02
2018-04-06T04:48:19.663Z,97031.44
2018-04-06T04:50:47.196Z,97029.90
2018-04-06T04:53:13.108Z,97038.00
2018-04-06T04:55:41.518Z,97030.67
2018-04-06T04:58:07.437Z,97025.99
2018-04-06T05:00:36.610Z,97032.47
2018-04-06T05:03:02.547Z,97022.65
2018-04-06T05:05:32.109Z,97022.97
2018-04-06T05:07:57.993Z,97022.02
2018-04-06T05:10:27.580Z,97021.20
2018-04-06T05:12:53.493Z,97015.63
2018-04-06T05:15:20.814Z,97018.55
2018-04-06T05:17:46.701Z,97023.82
2018-04-06T05:20:12.599Z,97021.47
2018-04-06T05:22:38.478Z,97027.44
2018-04-06T05:25:04.387Z,97029.50
2018-04-06T05:27:32.201Z,97031.46
2018-04-06T05:29:58.103Z,97030.94
2018-04-06T05:32:27.009Z,97033.39
2018-04-06T05:34:52.843Z,97034.09
2018-04-06T05:37:21.495Z,97033.77
2018-04-06T05:39:47.353Z,97041.44
2018-04-06T05:42:16.207Z,97035.50
2018-04-06T05:44:42.100Z,97028.19
2018-04-06T05:47:10.820Z,97031.83
2018-04-06T05:49:36.757Z,97035.47
2018-04-06T05:52:09.520Z,97029.63
2018-04-06T05:54:35.416Z,97031.89
2018-04-06T05:57:01.338Z,97029.48
2018-04-06T05:59:27.269Z,97026.38
2018-04-06T06:01:53.135Z,97034.98
2018-04-06T06:04:18.993Z,97036.30
2018-04-06T06:06:44.824Z,97036.70
2018-04-06T06:09:14.119Z,97034.91
2018-04-06T06:11:39.971Z,97035.34
2018-04-06T06:14:07.637Z,97035.94
2018-04-06T06:16:33.514Z,97033.27
2018-04-06T06:19:01.728Z,97026.69
2018-04-06T06:21:27.640Z,97028.02
2018-04-06T06:23:56.451Z,97034.89
2018-04-06T06:26:22.332Z,97033.88
2018-04-06T06:28:51.147Z,97034.41
2018-04-06T06:31:17.089Z,97025.91
2018-04-06T06:33:42.934Z,97034.26
2018-04-06T06:36:08.783Z,97037.88
2018-04-06T06:38:34.852Z,97030.55
2018-04-06T06:41:04.022Z,97038.19
2018-04-06T06:43:29.936Z,97032.06
2018-04-06T06:45:57.519Z,97035.87
2018-04-06T06:48:23.446Z,97038.02
2018-04-06T06:50:52.276Z,97033.87
2018-04-06T06:53:18.130Z,97025.56
2018-04-06T06:55:47.928Z,97027.11
2018-04-06T06:58:13.826Z,97027.25
2018-04-06T07:00:43.378Z,97038.28
2018-04-06T07:03:09.875Z,97033.00
2018-04-06T07:05:36.605Z,97034.63
2018-04-06T07:08:02.488Z,97030.49
2018-04-06T07:10:28.413Z,97035.15
2018-04-06T07:12:54.299Z,97025.77
2018-04-06T07:15:20.167Z,97032.67
2018-04-06T07:17:49.358Z,97031.81
2018-04-06T07:20:15.227Z,97028.37
2018-04-06T07:22:44.637Z,97036.61
2018-04-06T07:25:10.473Z,97031.34
2018-04-06T07:27:38.108Z,97028.83
2018-04-06T07:30:04.000Z,97021.48
2018-04-06T07:32:33.739Z,97028.51
2018-04-06T07:34:59.638Z,97026.93
2018-04-06T07:37:28.929Z,97031.14
2018-04-06T07:39:54.844Z,97028.45
2018-04-06T07:42:22.008Z,97023.77
2018-04-06T07:44:47.923Z,97026.48
2018-04-06T07:47:13.792Z,97021.92
2018-04-06T07:49:39.667Z,97025.02
2018-04-06T07:52:05.619Z,97027.36
2018-04-06T07:54:34.985Z,97011.97
2018-04-06T07:57:00.863Z,97007.23
2018-04-06T07:59:29.970Z,97006.98
2018-04-06T08:01:55.925Z,97010.94
2018-04-06T08:04:22.965Z,96999.09
2018-04-06T08:06:48.855Z,96993.52
2018-04-06T08:09:19.764Z,96986.77
2018-04-06T08:11:47.206Z,96988.75
2018-04-06T08:14:13.840Z,96993.59
2018-04-06T08:16:39.739Z,96992.26
2018-04-06T08:19:07.212Z,96985.77
2018-04-06T08:21:33.095Z,96983.28
2018-04-06T08:23:59.129Z,96977.02
2018-04-06T08:26:25.070Z,96982.74
2018-04-06T08:28:50.936Z,96979.45
2018-04-06T08:31:20.240Z,96976.50
2018-04-06T08:33:46.113Z,96977.03
2018-04-06T08:36:13.336Z,96968.30
2018-04-06T08:38:39.180Z,96976.49
2018-04-06T08:41:08.292Z,96968.94
2018-04-06T08:43:34.168Z,96965.23
2018-04-06T08:46:03.904Z,96950.94
2018-04-06T08:48:29.816Z,96965.84
2018-04-06T08:50:58.079Z,96960.50
2018-04-06T08:53:23.963Z,96959.78
2018-04-06T08:55:52.632Z,96956.17
2018-04-06T08:58:18.521Z,96956.16
2018-04-06T09:00:44.459Z,96960.00
2018-04-06T09:03:10.364Z,96952.53
2018-04-06T09:05:36.299Z,96949.55
2018-04-06T09:08:05.181Z,96949.66
2018-04-06T09:10:31.064Z,96942.56
2018-04-06T09:12:58.951Z,96944.14
2018-04-06T09:15:24.896Z,96949.34
2018-04-06T09:17:54.313Z,96944.89
2018-04-06T09:20:20.154Z,96944.34
2018-04-06T09:22:49.214Z,96939.27
2018-04-06T09:25:15.178Z,96936.89
2018-04-06T09:27:44.571Z,96936.47
2018-04-06T09:30:10.446Z,96925.61
2018-04-06T09:32:39.460Z,96934.60
2018-04-06T09:35:05.295Z,96921.44
2018-04-06T09:37:31.175Z,96926.14
2018-04-06T09:39:57.080Z,96920.08
2018-04-06T09:42:22.986Z,96919.36
2018-04-06T09:44:50.129Z,96920.81
2018-04-06T09:47:16.028Z,96916.36
2018-04-06T09:49:44.290Z,96916.99
2018-04-06T09:52:10.244Z,96911.93
2018-04-06T09:54:39.173Z,96911.05
2018-04-06T09:57:05.075Z,96911.66
2018-04-06T09:59:34.795Z,96900.00
2018-04-06T10:02:06.698Z,96895.24
2018-04-06T10:04:33.423Z,96888.06
2018-04-06T10:06:59.346Z,96881.48
2018-04-06T10:09:25.346Z,96891.48
2018-04-06T10:11:51.266Z,96884.64
2018-04-06T10:14:17.192Z,96882.73
2018-04-06T10:16:43.102Z,96878.86
2018-04-06T10:19:09.041Z,96871.62
2018-04-06T10:21:34.957Z,96865.80
2018-04-06T10:24:00.861Z,96864.56
2018-04-06T10:26:29.772Z,96859.80
2018-04-06T10:28:55.649Z,96862.41
2018-04-06T10:31:25.047Z,96859.22
2018-04-06T10:33:50.932Z,96852.19
2018-04-06T10:36:18.767Z,96849.11
2018-04-06T10:38:44.711Z,96845.72
2018-04-06T10:41:14.283Z,96833.27
2018-04-06T10:43:40.218Z,96844.36
2018-04-06T10:46:09.230Z,96840.28
2018-04-06T10:48:35.110Z,96823.66
2018-04-06T10:51:01.050Z,96825.70
2018-04-06T10:53:26.919Z,96820.86
2018-04-06T10:55:52.851Z,96827.46
2018-04-06T10:58:20.310Z,96828.61
2018-04-06T11:00:46.222Z,96826.98
2018-04-06T11:03:15.800Z,96823.31
2018-04-06T11:05:41.687Z,96816.84
2018-04-06T11:08:11.105Z,96801.66
2018-04-06T11:10:37.029Z,96809.31
2018-04-06T11:13:04.633Z,96806.02
2018-04-06T11:15:30.576Z,96815.45
2018-04-06T11:17:58.725Z,96816.20
2018-04-06T11:20:24.703Z,96809.48
2018-04-06T11:22:53.428Z,96800.47
2018-04-06T11:25:19.338Z,96791.98
2018-04-06T11:27:45.262Z,96804.88
2018-04-06T11:30:11.255Z,96803.22
2018-04-06T11:32:37.166Z,96798.48
2018-04-06T11:35:05.325Z,96785.95
2018-04-06T11:37:31.284Z,96788.08
2018-04-06T11:40:00.934Z,96783.29
2018-04-06T11:42:26.790Z,96781.45
2018-04-06T11:44:54.595Z,96776.30
2018-04-06T11:47:20.507Z,96782.31
2018-04-06T11:49:49.285Z,96780.07
2018-04-06T11:52:15.230Z,96762.33
2018-04-06T11:54:44.206Z,96774.61
2018-04-06T11:57:10.102Z,96758.87
2018-04-06T11:59:39.631Z,96765.70
2018-04-06T12:02:05.554Z,96759.09
2018-04-06T12:04:31.486Z,96754.64
2018-04-06T12:06:57.410Z,96753.25
2018-04-06T12:09:23.348Z,96740.58
2018-04-06T12:11:50.695Z,96744.47
2018-04-06T12:14:16.615Z,96732.45
2018-04-06T12:16:45.915Z,96735.94
2018-04-06T12:19:11.841Z,96734.77
2018-04-06T12:21:41.031Z,96732.48
2018-04-06T12:24:06.950Z,96720.23
2018-04-06T12:26:36.628Z,96723.05
2018-04-06T12:29:02.595Z,96722.36
2018-04-06T12:31:29.910Z,96713.53
2018-04-06T12:33:55.904Z,96714.11
2018-04-06T12:36:25.685Z,96721.17
2018-04-06T12:38:51.650Z,96707.06
2018-04-06T12:41:17.553Z,96706.22
2018-04-06T12:43:43.487Z,96702.35
2018-04-06T12:46:09.374Z,96690.73
2018-04-06T12:48:36.101Z,96703.71
2018-04-06T12:51:01.995Z,96683.42
2018-04-06T12:53:31.410Z,96689.72
2018-04-06T12:55:57.469Z,96682.58
2018-04-06T12:58:25.148Z,96687.20
2018-04-06T13:00:51.090Z,96686.43
2018-04-06T13:03:19.922Z,96684.38
2018-04-06T13:05:45.831Z,96681.10
2018-04-06T13:08:14.847Z,96679.61
2018-04-06T13:10:40.763Z,96678.44
2018-04-06T13:13:10.527Z,96676.76
2018-04-06T13:15:36.420Z,96680.09
2018-04-06T13:18:02.381Z,96678.08
2018-04-06T13:20:28.319Z,96677.53
2018-04-06T13:22:54.202Z,96669.13
2018-04-06T13:25:21.078Z,96665.69
2018-04-06T13:27:47.026Z,96667.66
2018-04-06T13:30:16.218Z,96665.95
2018-04-06T13:32:42.111Z,96665.70
2018-04-06T13:35:11.605Z,96656.05
2018-04-06T13:37:37.515Z,96653.69
2018-04-06T13:40:07.222Z,96661.64
2018-04-06T13:42:33.131Z,96652.58
2018-04-06T13:45:00.470Z,96650.77
2018-04-06T13:47:26.394Z,96635.44
2018-04-06T13:49:55.901Z,96638.77
2018-04-06T13:52:21.850Z,96633.71
2018-04-06T13:54:47.750Z,96635.09
2018-04-06T13:57:13.678Z,96632.25
2018-04-06T13:59:39.542Z,96630.88
2018-04-06T14:02:07.294Z,96625.53
2018-04-06T14:04:33.189Z,96623.41
2018-04-06T14:07:01.426Z,96613.89
2018-04-06T14:09:27.344Z,96620.05
2018-04-06T14:11:57.046Z,96612.50
2018-04-06T14:14:22.958Z,96608.45
2018-04-06T14:16:50.938Z,96604.86
2018-04-06T14:19:16.881Z,96597.27
2018-04-06T14:21:46.127Z,96597.80
2018-04-06T14:24:12.097Z,96596.23
2018-04-06T14:26:41.227Z,96595.61
2018-04-06T14:29:07.144Z,96593.04
2018-04-06T14:31:33.069Z,96587.17
2018-04-06T14:33:59.077Z,96592.11
2018-04-06T14:36:24.976Z,96588.85
2018-04-06T14:38:51.991Z,96590.14
2018-04-06T14:41:17.935Z,96588.86
2018-04-06T14:43:47.188Z,96586.77
2018-04-06T14:46:13.142Z,96583.06
2018-04-06T14:48:42.305Z,96574.38
2018-04-06T14:51:08.254Z,96578.30
2018-04-06T14:53:38.246Z,96576.95
2018-04-06T14:56:04.169Z,96572.17
2018-04-06T14:58:30.595Z,96574.89
2018-04-06T15:00:56.534Z,96573.94
2018-04-06T15:03:25.387Z,96562.38
2018-04-06T15:05:51.310Z,96576.14
2018-04-06T15:08:18.947Z,96569.38
2018-04-06T15:10:45.019Z,96561.64
2018-04-06T15:13:10.950Z,96561.90
2018-04-06T15:15:36.973Z,96560.01
2018-04-06T15:18:03.557Z,96558.05
2018-04-06T15:20:33.479Z,96551.64
2018-04-06T15:22:59.401Z,96556.98
2018-04-06T15:25:26.838Z,96551.58
2018-04-06T15:27:52.756Z,96553.38
2018-04-06T15:30:22.089Z,96553.63
2018-04-06T15:32:47.990Z,96548.25
2018-04-06T15:35:17.385Z,96549.45
2018-04-06T15:37:43.278Z,96545.00
2018-04-06T15:40:12.277Z,96541.27
2018-04-06T15:42:38.180Z,96544.08
2018-04-06T15:45:04.106Z,96538.95
2018-04-06T15:47:30.022Z,96534.30
2018-04-06T15:49:55.921Z,96527.91
2018-04-06T15:52:22.674Z,96528.93
2018-04-06T15:54:48.571Z,96526.43
2018-04-06T15:57:17.754Z,96533.59
2018-04-06T15:59:43.666Z,96530.84
2018-04-06T16:02:12.824Z,96529.12
2018-04-06T16:04:38.724Z,96527.97
2018-04-06T16:07:06.598Z,96526.83
2018-04-06T16:09:32.557Z,96520.63
2018-04-06T16:12:01.934Z,96521.70
2018-04-06T16:14:27.879Z,96523.06
2018-04-06T16:16:57.441Z,96517.72
2018-04-06T16:19:23.405Z,96522.14
2018-04-06T16:21:49.318Z,96515.56
2018-04-06T16:24:15.262Z,96518.45
2018-04-06T16:26:41.190Z,96518.75
2018-04-06T16:29:08.416Z,96514.68
2018-04-06T16:31:34.341Z,96520.70
2018-04-06T16:34:03.594Z,96510.44
2018-04-06T16:36:29.550Z,96505.76
2018-04-06T16:38:58.634Z,96502.42
2018-04-06T16:41:24.558Z,96499.58
2018-04-06T16:43:51.978Z,96497.24
2018-04-06T16:46:17.901Z,96498.17
2018-04-06T16:48:46.715Z,96495.52
2018-04-06T16:51:12.625Z,96504.83
2018-04-06T16:53:41.866Z,96494.63
2018-04-06T16:56:07.808Z,96506.45
2018-04-06T16:58:33.714Z,96497.84
2018-04-06T17:00:59.672Z,96500.37
2018-04-06T17:03:25.536Z,96501.83
2018-04-06T17:05:52.886Z,96504.88
2018-04-06T17:08:18.775Z,96506.87
2018-04-06T17:10:47.874Z,96504.50
2018-04-06T17:13:13.816Z,96508.45
2018-04-06T17:15:43.137Z,96507.58
2018-04-06T17:18:09.113Z,96506.88
2018-04-06T17:20:38.193Z,96504.63
2018-04-06T17:23:04.074Z,96505.39
2018-04-06T17:25:31.958Z,96504.32
2018-04-06T17:27:57.863Z,96502.39
2018-04-06T17:30:27.303Z,96504.70
2018-04-06T17:32:53.185Z,96506.80
2018-04-06T17:35:19.088Z,96500.61
2018-04-06T17:37:44.971Z,96497.56
2018-04-06T17:40:10.856Z,96503.15
2018-04-06T17:42:38.804Z,96505.05
2018-04-06T17:45:04.712Z,96500.56
2018-04-06T17:47:34.549Z,96501.33
2018-04-06T17:50:00.460Z,96495.94
2018-04-06T17:52:29.432Z,96495.52
2018-04-06T17:54:55.343Z,96496.58
2018-04-06T17:57:22.196Z,96494.37
2018-04-06T17:59:48.027Z,96500.66
2018-04-06T18:02:16.739Z,96503.59
2018-04-06T18:04:42.655Z,96506.64
2018-04-06T18:07:11.419Z,96513.55
2018-04-06T18:09:37.426Z,96511.73
2018-04-06T18:12:03.341Z,96504.89
2018-04-06T18:14:29.291Z,96508.44
2018-04-06T18:16:55.190Z,96506.00
2018-04-06T18:19:23.463Z,96511.14
2018-04-06T18:21:49.362Z,96513.62
2018-04-06T18:24:18.237Z,96511.50
2018-04-06T18:26:44.119Z,96516.30
2018-04-06T18:29:13.044Z,96510.20
2018-04-06T18:31:38.967Z,96513.60
2018-04-06T18:34:08.214Z,96519.47
2018-04-06T18:36:34.218Z,96521.02
2018-04-06T18:39:03.468Z,96519.56
2018-04-06T18:41:29.399Z,96518.25
2018-04-06T18:43:57.501Z,96517.81
2018-04-06T18:46:23.406Z,96515.98
2018-04-06T18:48:49.323Z,96516.67
2018-04-06T18:51:15.222Z,96517.19
2018-04-06T18:53:41.154Z,96515.13
2018-04-06T18:56:10.334Z,96517.99
2018-04-06T18:58:36.249Z,96520.69
2018-04-06T19:01:03.658Z,96514.78
2018-04-06T19:03:29.589Z,96515.11
2018-04-06T19:05:59.346Z,96512.31
2018-04-06T19:08:25.328Z,96516.44
2018-04-06T19:10:53.265Z,96511.38
2018-04-06T19:13:19.191Z,96513.62
2018-04-06T19:15:48.150Z,96521.98
2018-04-06T19:18:14.092Z,96515.88
2018-04-06T19:20:42.901Z,96517.67
2018-04-06T19:23:08.862Z,96517.41
2018-04-06T19:25:34.815Z,96517.61
2018-04-06T19:28:00.747Z,96516.34
2018-04-06T19:30:26.682Z,96520.44
2018-04-06T19:32:55.668Z,96519.66
2018-04-06T19:35:21.578Z,96523.72
2018-04-06T19:37:48.831Z,96517.54
2018-04-06T19:40:14.806Z,96518.75
2018-04-06T19:42:43.810Z,96512.13
2018-04-06T19:45:09.772Z,96515.36
2018-04-06T19:47:39.038Z,96513.96
2018-04-06T19:50:04.973Z,96513.22
2018-04-06T19:52:34.103Z,96515.17
2018-04-06T19:55:00.099Z,96515.30
2018-04-06T19:57:29.549Z,96507.58
2018-04-06T19:59:55.478Z,96499.00
2018-04-06T20:02:21.428Z,96507.34
2018-04-06T20:04:47.337Z,96507.38
2018-04-06T20:07:13.235Z,96502.80
2018-04-06T20:09:40.017Z,96501.54
2018-04-06T20:12:05.938Z,96506.11
2018-04-06T20:14:35.022Z,96505.39
2018-04-06T20:17:00.946Z,96505.81
2018-04-06T20:19:30.314Z,96504.41
2018-04-06T20:21:56.281Z,96506.49
2018-04-06T20:24:24.148Z,96504.05
2018-04-06T20:26:50.055Z,96501.17
2018-04-06T20:29:19.778Z,96504.79
2018-04-06T20:31:45.678Z,96501.06
2018-04-06T20:34:14.642Z,96500.44
2018-04-06T20:36:40.547Z,96494.60
2018-04-06T20:39:06.742Z,96493.05
2018-04-06T20:41:32.693Z,96486.39
2018-04-06T20:43:58.604Z,96486.48
2018-04-06T20:46:24.616Z,96486.86
2018-04-06T20:48:50.522Z,96488.15
2018-04-06T20:51:19.776Z,96482.68
2018-04-06T20:56:37.627Z,96482.58
2018-04-06T20:59:03.573Z,96479.36
2018-04-06T21:01:29.470Z,96479.63
2018-04-06T21:03:55.359Z,96476.47
2018-04-06T21:06:21.266Z,96473.02
2018-04-06T21:08:47.333Z,96481.73
2018-04-06T21:11:13.228Z,96477.23
2018-04-06T21:13:39.171Z,96473.09
2018-04-06T21:16:05.354Z,96466.22
2018-04-06T21:18:31.259Z,96460.20
2018-04-06T21:20:57.284Z,96467.17
2018-04-06T21:23:23.202Z,96463.78
2018-04-06T21:25:49.142Z,96464.35
2018-04-06T21:28:15.095Z,96460.89
2018-04-06T21:30:41.032Z,96453.55
2018-04-06T21:33:06.930Z,96456.45
2018-04-06T21:35:32.860Z,96454.22
2018-04-06T21:37:58.787Z,96453.26
2018-04-06T21:40:24.692Z,96451.17
2018-04-06T21:42:50.605Z,96451.91
2018-04-06T21:45:16.550Z,96452.52
2018-04-06T21:47:44.223Z,96444.21
2018-04-06T21:50:10.178Z,96442.52
2018-04-06T21:52:36.092Z,96440.77
2018-04-06T21:55:02.074Z,96440.13
2018-04-06T21:57:28.001Z,96436.59
2018-04-06T21:59:56.931Z,96431.68
2018-04-06T22:02:22.867Z,96432.05
2018-04-06T22:04:50.394Z,96438.27
2018-04-06T22:07:16.275Z,96431.31
2018-04-06T22:09:45.615Z,96436.23
2018-04-06T22:12:11.533Z,96431.23
2018-04-06T22:14:42.560Z,96438.94
2018-04-06T22:17:08.530Z,96430.22
2018-04-06T22:19:34.441Z,96430.95
2018-04-06T22:22:00.375Z,96428.21
2018-04-06T22:24:29.288Z,96423.32
2018-04-06T22:26:55.209Z,96424.45
2018-04-06T22:29:21.142Z,96426.97
2018-04-06T22:31:47.075Z,96418.37
2018-04-06T22:34:13.013Z,96422.28
2018-04-06T22:36:40.726Z,96414.62
2018-04-06T22:39:06.618Z,96414.70
2018-04-06T22:41:35.706Z,96410.75
2018-04-06T22:44:01.624Z,96415.66
2018-04-06T22:46:30.918Z,96409.09
2018-04-06T22:48:56.805Z,96415.12
2018-04-06T22:51:26.295Z,96417.45
2018-04-06T22:53:52.174Z,96413.19
2018-04-06T22:56:19.559Z,96414.08
2018-04-06T22:58:45.518Z,96409.42
2018-04-06T23:01:14.803Z,96409.94
2018-04-06T23:03:40.703Z,96406.91
2018-04-06T23:06:06.671Z,96409.94
2018-04-06T23:08:32.551Z,96406.40
2018-04-06T23:10:58.450Z,96402.38
2018-04-06T23:13:26.121Z,96401.07
2018-04-06T23:15:52.068Z,96390.25
2018-04-06T23:18:21.590Z,96392.39
2018-04-06T23:20:47.513Z,96390.98
2018-04-06T23:23:17.086Z,96398.41
2018-04-06T23:25:42.988Z,96390.03
2018-04-06T23:28:10.760Z,96396.18
2018-04-06T23:30:36.662Z,96395.59
2018-04-06T23:33:06.544Z,96393.05
2018-04-06T23:35:32.470Z,96392.48
2018-04-06T23:37:59.989Z,96394.23
2018-04-06T23:40:25.878Z,96388.14
2018-04-06T23:42:51.782Z,96366.37
2018-04-06T23:45:17.700Z,96387.80
2018-04-06T23:47:43.704Z,96386.72
2018-04-06T23:50:12.781Z,96386.72
2018-04-06T23:52:38.711Z,96378.57
2018-04-06T23:55:06.117Z,96375.52
2018-04-06T23:57:32.041Z,96381.14
